sensor_id;sensor_type;location;lat;lon;timestamp;P1;durP1;ratioP1;P2;durP2;ratioP2
29422;SDS011;16399;51.686;8.684;2022-08-19T00:02:41;12.03;;;6.85;;
29422;SDS011;16399;51.686;8.684;2022-08-19T00:05:44;9.20;;;6.62;;
29422;SDS011;16399;51.686;8.684;2022-08-19T00:08:46;12.37;;;7.37;;
29422;SDS011;16399;51.686;8.684;2022-08-19T00:11:48;9.35;;;6.83;;
29422;SDS011;16399;51.686;8.684;2022-08-19T00:14:52;9.25;;;6.83;;
29422;SDS011;16399;51.686;8.684;2022-08-19T00:17:54;9.68;;;6.42;;
29422;SDS011;16399;51.686;8.684;2022-08-19T00:20:57;10.18;;;6.60;;
29422;SDS011;16399;51.686;8.684;2022-08-19T00:23:59;9.53;;;6.62;;
29422;SDS011;16399;51.686;8.684;2022-08-19T00:27:02;10.23;;;6.67;;
29422;SDS011;16399;51.686;8.684;2022-08-19T00:30:05;10.45;;;6.35;;
29422;SDS011;16399;51.686;8.684;2022-08-19T00:33:08;12.55;;;6.97;;
29422;SDS011;16399;51.686;8.684;2022-08-19T00:36:10;10.18;;;7.03;;
29422;SDS011;16399;51.686;8.684;2022-08-19T00:39:13;9.65;;;6.90;;
29422;SDS011;16399;51.686;8.684;2022-08-19T00:42:18;13.43;;;6.80;;
29422;SDS011;16399;51.686;8.684;2022-08-19T00:45:22;11.22;;;7.65;;
29422;SDS011;16399;51.686;8.684;2022-08-19T00:48:26;10.08;;;6.67;;
29422;SDS011;16399;51.686;8.684;2022-08-19T00:51:29;12.00;;;6.80;;
29422;SDS011;16399;51.686;8.684;2022-08-19T00:54:33;9.13;;;6.50;;
29422;SDS011;16399;51.686;8.684;2022-08-19T00:57:42;8.50;;;6.20;;
29422;SDS011;16399;51.686;8.684;2022-08-19T01:00:42;13.45;;;6.70;;
29422;SDS011;16399;51.686;8.684;2022-08-19T01:03:45;11.97;;;7.83;;
29422;SDS011;16399;51.686;8.684;2022-08-19T01:06:47;10.95;;;7.17;;
29422;SDS011;16399;51.686;8.684;2022-08-19T01:09:50;11.65;;;7.15;;
29422;SDS011;16399;51.686;8.684;2022-08-19T01:12:53;11.20;;;6.28;;
29422;SDS011;16399;51.686;8.684;2022-08-19T01:15:59;12.05;;;7.17;;
29422;SDS011;16399;51.686;8.684;2022-08-19T01:19:03;11.35;;;7.05;;
29422;SDS011;16399;51.686;8.684;2022-08-19T01:22:09;10.78;;;6.60;;
29422;SDS011;16399;51.686;8.684;2022-08-19T01:25:24;12.25;;;8.65;;
29422;SDS011;16399;51.686;8.684;2022-08-19T01:28:29;11.28;;;8.40;;
29422;SDS011;16399;51.686;8.684;2022-08-19T01:31:32;9.73;;;7.28;;
29422;SDS011;16399;51.686;8.684;2022-08-19T01:34:34;10.88;;;7.72;;
29422;SDS011;16399;51.686;8.684;2022-08-19T01:37:54;10.88;;;7.28;;
29422;SDS011;16399;51.686;8.684;2022-08-19T01:40:57;10.32;;;7.83;;
29422;SDS011;16399;51.686;8.684;2022-08-19T01:44:00;12.05;;;8.30;;
29422;SDS011;16399;51.686;8.684;2022-08-19T01:47:04;11.73;;;8.35;;
29422;SDS011;16399;51.686;8.684;2022-08-19T01:50:07;14.40;;;8.93;;
29422;SDS011;16399;51.686;8.684;2022-08-19T01:53:11;14.90;;;9.45;;
29422;SDS011;16399;51.686;8.684;2022-08-19T01:56:13;16.27;;;9.25;;
29422;SDS011;16399;51.686;8.684;2022-08-19T01:59:17;12.40;;;8.30;;
29422;SDS011;16399;51.686;8.684;2022-08-19T02:02:21;15.65;;;8.80;;
29422;SDS011;16399;51.686;8.684;2022-08-19T02:05:23;13.38;;;8.98;;
29422;SDS011;16399;51.686;8.684;2022-08-19T02:08:26;12.20;;;9.25;;
29422;SDS011;16399;51.686;8.684;2022-08-19T02:11:34;13.50;;;9.88;;
29422;SDS011;16399;51.686;8.684;2022-08-19T02:14:34;12.95;;;8.75;;
29422;SDS011;16399;51.686;8.684;2022-08-19T02:17:37;15.48;;;9.58;;
29422;SDS011;16399;51.686;8.684;2022-08-19T02:20:40;13.25;;;9.53;;
29422;SDS011;16399;51.686;8.684;2022-08-19T02:23:44;14.90;;;10.13;;
29422;SDS011;16399;51.686;8.684;2022-08-19T02:26:47;16.60;;;11.48;;
29422;SDS011;16399;51.686;8.684;2022-08-19T02:29:49;16.12;;;10.60;;
29422;SDS011;16399;51.686;8.684;2022-08-19T02:32:53;17.55;;;10.45;;
29422;SDS011;16399;51.686;8.684;2022-08-19T02:35:55;15.25;;;10.45;;
29422;SDS011;16399;51.686;8.684;2022-08-19T02:38:57;15.53;;;9.78;;
29422;SDS011;16399;51.686;8.684;2022-08-19T02:42:00;13.25;;;9.65;;
29422;SDS011;16399;51.686;8.684;2022-08-19T02:45:02;15.03;;;10.20;;
29422;SDS011;16399;51.686;8.684;2022-08-19T02:48:05;14.47;;;10.35;;
29422;SDS011;16399;51.686;8.684;2022-08-19T02:51:09;13.13;;;10.55;;
29422;SDS011;16399;51.686;8.684;2022-08-19T02:54:15;14.83;;;11.00;;
29422;SDS011;16399;51.686;8.684;2022-08-19T02:57:17;14.98;;;9.98;;
29422;SDS011;16399;51.686;8.684;2022-08-19T03:00:19;14.63;;;10.78;;
29422;SDS011;16399;51.686;8.684;2022-08-19T03:03:21;14.80;;;10.08;;
29422;SDS011;16399;51.686;8.684;2022-08-19T03:06:24;15.88;;;10.25;;
29422;SDS011;16399;51.686;8.684;2022-08-19T03:09:27;13.08;;;9.28;;
29422;SDS011;16399;51.686;8.684;2022-08-19T03:12:30;15.70;;;9.65;;
29422;SDS011;16399;51.686;8.684;2022-08-19T03:15:32;11.48;;;8.38;;
29422;SDS011;16399;51.686;8.684;2022-08-19T03:18:35;12.65;;;8.70;;
29422;SDS011;16399;51.686;8.684;2022-08-19T03:21:37;16.77;;;8.45;;
29422;SDS011;16399;51.686;8.684;2022-08-19T03:24:39;14.73;;;10.55;;
29422;SDS011;16399;51.686;8.684;2022-08-19T03:27:42;15.45;;;11.03;;
29422;SDS011;16399;51.686;8.684;2022-08-19T03:30:54;15.65;;;10.28;;
29422;SDS011;16399;51.686;8.684;2022-08-19T03:34:02;13.98;;;8.65;;
29422;SDS011;16399;51.686;8.684;2022-08-19T03:37:06;14.10;;;5.87;;
29422;SDS011;16399;51.686;8.684;2022-08-19T03:40:10;10.85;;;6.67;;
29422;SDS011;16399;51.686;8.684;2022-08-19T03:43:12;13.25;;;8.10;;
29422;SDS011;16399;51.686;8.684;2022-08-19T03:46:17;12.70;;;7.83;;
29422;SDS011;16399;51.686;8.684;2022-08-19T03:49:22;15.18;;;8.95;;
29422;SDS011;16399;51.686;8.684;2022-08-19T03:52:27;16.40;;;10.58;;
29422;SDS011;16399;51.686;8.684;2022-08-19T03:55:29;17.60;;;11.75;;
29422;SDS011;16399;51.686;8.684;2022-08-19T03:58:32;15.30;;;11.15;;
29422;SDS011;16399;51.686;8.684;2022-08-19T04:01:34;18.30;;;11.65;;
29422;SDS011;16399;51.686;8.684;2022-08-19T04:04:43;17.90;;;11.73;;
29422;SDS011;16399;51.686;8.684;2022-08-19T04:07:41;23.75;;;13.65;;
29422;SDS011;16399;51.686;8.684;2022-08-19T04:10:45;17.30;;;12.40;;
29422;SDS011;16399;51.686;8.684;2022-08-19T04:13:49;22.37;;;14.38;;
29422;SDS011;16399;51.686;8.684;2022-08-19T04:16:52;19.02;;;13.43;;
29422;SDS011;16399;51.686;8.684;2022-08-19T04:19:55;20.02;;;14.20;;
29422;SDS011;16399;51.686;8.684;2022-08-19T04:22:57;23.45;;;14.47;;
29422;SDS011;16399;51.686;8.684;2022-08-19T04:25:59;20.15;;;13.90;;
29422;SDS011;16399;51.686;8.684;2022-08-19T04:29:04;20.82;;;14.23;;
29422;SDS011;16399;51.686;8.684;2022-08-19T04:32:10;22.37;;;14.75;;
29422;SDS011;16399;51.686;8.684;2022-08-19T04:35:14;23.70;;;14.47;;
29422;SDS011;16399;51.686;8.684;2022-08-19T04:38:18;22.50;;;14.47;;
29422;SDS011;16399;51.686;8.684;2022-08-19T04:41:23;20.17;;;14.05;;
29422;SDS011;16399;51.686;8.684;2022-08-19T04:44:44;20.82;;;13.83;;
29422;SDS011;16399;51.686;8.684;2022-08-19T04:47:46;20.52;;;14.13;;
29422;SDS011;16399;51.686;8.684;2022-08-19T04:50:49;21.70;;;14.70;;
29422;SDS011;16399;51.686;8.684;2022-08-19T04:53:51;20.68;;;14.10;;
29422;SDS011;16399;51.686;8.684;2022-08-19T04:56:54;22.37;;;13.83;;
29422;SDS011;16399;51.686;8.684;2022-08-19T04:59:56;23.18;;;14.13;;
29422;SDS011;16399;51.686;8.684;2022-08-19T05:02:58;23.10;;;14.20;;
29422;SDS011;16399;51.686;8.684;2022-08-19T05:06:08;21.80;;;14.35;;
29422;SDS011;16399;51.686;8.684;2022-08-19T05:09:12;21.07;;;14.20;;
29422;SDS011;16399;51.686;8.684;2022-08-19T05:12:16;23.15;;;14.65;;
29422;SDS011;16399;51.686;8.684;2022-08-19T05:15:19;18.17;;;14.33;;
29422;SDS011;16399;51.686;8.684;2022-08-19T05:18:22;22.02;;;14.75;;
29422;SDS011;16399;51.686;8.684;2022-08-19T05:21:42;24.12;;;14.50;;
29422;SDS011;16399;51.686;8.684;2022-08-19T05:25:04;23.05;;;15.23;;
29422;SDS011;16399;51.686;8.684;2022-08-19T05:28:08;23.07;;;14.53;;
29422;SDS011;16399;51.686;8.684;2022-08-19T05:31:11;20.55;;;13.95;;
29422;SDS011;16399;51.686;8.684;2022-08-19T05:34:13;23.70;;;14.53;;
29422;SDS011;16399;51.686;8.684;2022-08-19T05:37:15;24.35;;;14.40;;
29422;SDS011;16399;51.686;8.684;2022-08-19T05:40:18;22.20;;;14.98;;
29422;SDS011;16399;51.686;8.684;2022-08-19T05:43:20;21.68;;;14.63;;
29422;SDS011;16399;51.686;8.684;2022-08-19T05:46:22;22.48;;;14.90;;
29422;SDS011;16399;51.686;8.684;2022-08-19T05:49:25;21.68;;;15.10;;
29422;SDS011;16399;51.686;8.684;2022-08-19T05:52:29;28.45;;;15.05;;
29422;SDS011;16399;51.686;8.684;2022-08-19T05:55:31;23.77;;;15.18;;
29422;SDS011;16399;51.686;8.684;2022-08-19T05:58:34;24.18;;;16.12;;
29422;SDS011;16399;51.686;8.684;2022-08-19T06:01:39;23.50;;;15.08;;
29422;SDS011;16399;51.686;8.684;2022-08-19T06:04:42;22.95;;;16.42;;
29422;SDS011;16399;51.686;8.684;2022-08-19T06:07:45;21.97;;;15.25;;
29422;SDS011;16399;51.686;8.684;2022-08-19T06:10:47;23.12;;;15.20;;
29422;SDS011;16399;51.686;8.684;2022-08-19T06:13:51;25.08;;;16.10;;
29422;SDS011;16399;51.686;8.684;2022-08-19T06:19:56;25.65;;;15.30;;
29422;SDS011;16399;51.686;8.684;2022-08-19T06:22:58;24.57;;;15.32;;
29422;SDS011;16399;51.686;8.684;2022-08-19T06:26:01;22.02;;;15.50;;
29422;SDS011;16399;51.686;8.684;2022-08-19T06:29:04;20.65;;;13.95;;
29422;SDS011;16399;51.686;8.684;2022-08-19T06:32:07;23.15;;;16.55;;
29422;SDS011;16399;51.686;8.684;2022-08-19T06:35:11;26.00;;;15.53;;
29422;SDS011;16399;51.686;8.684;2022-08-19T06:38:15;23.92;;;15.68;;
29422;SDS011;16399;51.686;8.684;2022-08-19T06:41:17;21.85;;;15.40;;
29422;SDS011;16399;51.686;8.684;2022-08-19T06:44:20;27.13;;;15.68;;
29422;SDS011;16399;51.686;8.684;2022-08-19T06:47:26;23.30;;;16.20;;
29422;SDS011;16399;51.686;8.684;2022-08-19T06:50:28;28.32;;;17.37;;
29422;SDS011;16399;51.686;8.684;2022-08-19T06:53:31;24.92;;;15.30;;
29422;SDS011;16399;51.686;8.684;2022-08-19T06:56:34;24.98;;;15.50;;
29422;SDS011;16399;51.686;8.684;2022-08-19T06:59:37;20.57;;;14.28;;
29422;SDS011;16399;51.686;8.684;2022-08-19T07:02:40;20.80;;;14.53;;
29422;SDS011;16399;51.686;8.684;2022-08-19T07:05:43;21.48;;;14.70;;
29422;SDS011;16399;51.686;8.684;2022-08-19T07:08:45;23.20;;;14.80;;
29422;SDS011;16399;51.686;8.684;2022-08-19T07:11:49;16.77;;;12.40;;
29422;SDS011;16399;51.686;8.684;2022-08-19T07:14:53;19.20;;;13.22;;
29422;SDS011;16399;51.686;8.684;2022-08-19T07:17:55;19.07;;;13.05;;
29422;SDS011;16399;51.686;8.684;2022-08-19T07:21:12;18.37;;;12.18;;
29422;SDS011;16399;51.686;8.684;2022-08-19T07:24:15;21.50;;;13.03;;
29422;SDS011;16399;51.686;8.684;2022-08-19T07:27:18;19.02;;;12.18;;
29422;SDS011;16399;51.686;8.684;2022-08-19T07:30:21;25.77;;;12.78;;
29422;SDS011;16399;51.686;8.684;2022-08-19T07:33:24;21.45;;;12.43;;
29422;SDS011;16399;51.686;8.684;2022-08-19T07:36:27;17.80;;;11.55;;
29422;SDS011;16399;51.686;8.684;2022-08-19T07:39:33;21.15;;;11.43;;
29422;SDS011;16399;51.686;8.684;2022-08-19T07:42:37;17.00;;;11.25;;
29422;SDS011;16399;51.686;8.684;2022-08-19T07:45:39;21.33;;;11.35;;
29422;SDS011;16399;51.686;8.684;2022-08-19T07:48:43;18.05;;;11.18;;
29422;SDS011;16399;51.686;8.684;2022-08-19T07:51:51;21.00;;;11.63;;
29422;SDS011;16399;51.686;8.684;2022-08-19T07:54:58;16.95;;;10.63;;
29422;SDS011;16399;51.686;8.684;2022-08-19T07:58:02;15.45;;;10.50;;
29422;SDS011;16399;51.686;8.684;2022-08-19T08:01:06;17.65;;;11.20;;
29422;SDS011;16399;51.686;8.684;2022-08-19T08:04:10;19.48;;;10.95;;
29422;SDS011;16399;51.686;8.684;2022-08-19T08:07:31;16.75;;;10.50;;
29422;SDS011;16399;51.686;8.684;2022-08-19T08:10:51;17.73;;;9.68;;
29422;SDS011;16399;51.686;8.684;2022-08-19T08:13:53;13.00;;;9.15;;
29422;SDS011;16399;51.686;8.684;2022-08-19T08:16:55;16.93;;;10.25;;
29422;SDS011;16399;51.686;8.684;2022-08-19T08:19:58;14.38;;;9.40;;
29422;SDS011;16399;51.686;8.684;2022-08-19T08:23:01;16.90;;;9.43;;
29422;SDS011;16399;51.686;8.684;2022-08-19T08:26:21;13.72;;;9.33;;
29422;SDS011;16399;51.686;8.684;2022-08-19T08:29:24;14.63;;;9.30;;
29422;SDS011;16399;51.686;8.684;2022-08-19T08:35:30;12.65;;;8.28;;
29422;SDS011;16399;51.686;8.684;2022-08-19T08:38:34;11.95;;;7.60;;
29422;SDS011;16399;51.686;8.684;2022-08-19T08:45:05;17.17;;;8.55;;
29422;SDS011;16399;51.686;8.684;2022-08-19T08:48:22;15.58;;;7.67;;
29422;SDS011;16399;51.686;8.684;2022-08-19T08:51:27;12.05;;;7.78;;
29422;SDS011;16399;51.686;8.684;2022-08-19T08:54:42;11.20;;;6.85;;
29422;SDS011;16399;51.686;8.684;2022-08-19T09:00:56;11.03;;;6.53;;
29422;SDS011;16399;51.686;8.684;2022-08-19T09:03:58;9.73;;;5.90;;
29422;SDS011;16399;51.686;8.684;2022-08-19T09:07:13;8.98;;;5.65;;
29422;SDS011;16399;51.686;8.684;2022-08-19T09:10:32;7.53;;;5.25;;
29422;SDS011;16399;51.686;8.684;2022-08-19T09:16:52;12.47;;;6.37;;
29422;SDS011;16399;51.686;8.684;2022-08-19T09:19:56;9.38;;;5.50;;
29422;SDS011;16399;51.686;8.684;2022-08-19T09:23:02;10.08;;;6.30;;
29422;SDS011;16399;51.686;8.684;2022-08-19T09:26:12;9.08;;;5.47;;
29422;SDS011;16399;51.686;8.684;2022-08-19T09:29:16;10.60;;;5.58;;
29422;SDS011;16399;51.686;8.684;2022-08-19T09:32:18;7.85;;;5.40;;
29422;SDS011;16399;51.686;8.684;2022-08-19T09:35:22;8.98;;;5.33;;
29422;SDS011;16399;51.686;8.684;2022-08-19T09:38:27;9.33;;;6.55;;
29422;SDS011;16399;51.686;8.684;2022-08-19T09:41:29;9.25;;;5.72;;
29422;SDS011;16399;51.686;8.684;2022-08-19T09:44:31;10.60;;;5.08;;
29422;SDS011;16399;51.686;8.684;2022-08-19T09:47:35;8.23;;;4.93;;
29422;SDS011;16399;51.686;8.684;2022-08-19T09:50:38;9.10;;;5.10;;
29422;SDS011;16399;51.686;8.684;2022-08-19T09:53:41;7.97;;;5.30;;
29422;SDS011;16399;51.686;8.684;2022-08-19T09:56:45;8.28;;;5.15;;
29422;SDS011;16399;51.686;8.684;2022-08-19T09:59:47;9.08;;;5.10;;
29422;SDS011;16399;51.686;8.684;2022-08-19T10:02:50;8.25;;;4.92;;
29422;SDS011;16399;51.686;8.684;2022-08-19T10:05:52;7.30;;;4.67;;
29422;SDS011;16399;51.686;8.684;2022-08-19T10:08:55;8.25;;;5.15;;
29422;SDS011;16399;51.686;8.684;2022-08-19T10:11:57;10.45;;;4.37;;
29422;SDS011;16399;51.686;8.684;2022-08-19T10:15:02;7.90;;;4.40;;
29422;SDS011;16399;51.686;8.684;2022-08-19T10:18:06;5.47;;;4.10;;
29422;SDS011;16399;51.686;8.684;2022-08-19T10:21:11;7.72;;;4.10;;
29422;SDS011;16399;51.686;8.684;2022-08-19T10:24:15;7.20;;;4.20;;
29422;SDS011;16399;51.686;8.684;2022-08-19T10:27:17;7.85;;;4.33;;
29422;SDS011;16399;51.686;8.684;2022-08-19T10:30:20;7.25;;;4.10;;
29422;SDS011;16399;51.686;8.684;2022-08-19T10:33:22;7.33;;;4.28;;
29422;SDS011;16399;51.686;8.684;2022-08-19T10:36:26;9.05;;;4.28;;
29422;SDS011;16399;51.686;8.684;2022-08-19T10:39:31;8.00;;;4.28;;
29422;SDS011;16399;51.686;8.684;2022-08-19T10:42:34;7.75;;;4.78;;
29422;SDS011;16399;51.686;8.684;2022-08-19T10:45:37;9.65;;;4.47;;
29422;SDS011;16399;51.686;8.684;2022-08-19T10:48:39;8.23;;;4.20;;
29422;SDS011;16399;51.686;8.684;2022-08-19T10:51:43;8.80;;;4.62;;
29422;SDS011;16399;51.686;8.684;2022-08-19T10:55:04;7.78;;;3.80;;
29422;SDS011;16399;51.686;8.684;2022-08-19T10:58:26;11.48;;;4.10;;
29422;SDS011;16399;51.686;8.684;2022-08-19T11:01:28;7.95;;;4.25;;
29422;SDS011;16399;51.686;8.684;2022-08-19T11:04:33;6.75;;;3.67;;
29422;SDS011;16399;51.686;8.684;2022-08-19T11:07:36;6.00;;;3.98;;
29422;SDS011;16399;51.686;8.684;2022-08-19T11:10:42;6.45;;;3.10;;
29422;SDS011;16399;51.686;8.684;2022-08-19T11:13:44;7.72;;;3.75;;
29422;SDS011;16399;51.686;8.684;2022-08-19T11:16:47;6.15;;;3.90;;
29422;SDS011;16399;51.686;8.684;2022-08-19T11:19:50;6.60;;;3.33;;
29422;SDS011;16399;51.686;8.684;2022-08-19T11:22:52;6.92;;;3.35;;
29422;SDS011;16399;51.686;8.684;2022-08-19T11:25:55;6.47;;;2.80;;
29422;SDS011;16399;51.686;8.684;2022-08-19T11:29:00;4.50;;;2.62;;
29422;SDS011;16399;51.686;8.684;2022-08-19T11:32:08;5.60;;;2.98;;
29422;SDS011;16399;51.686;8.684;2022-08-19T11:35:09;3.77;;;2.33;;
29422;SDS011;16399;51.686;8.684;2022-08-19T11:38:11;4.58;;;2.47;;
29422;SDS011;16399;51.686;8.684;2022-08-19T11:41:16;5.17;;;2.30;;
29422;SDS011;16399;51.686;8.684;2022-08-19T11:44:20;6.47;;;3.00;;
29422;SDS011;16399;51.686;8.684;2022-08-19T11:47:22;6.35;;;2.60;;
29422;SDS011;16399;51.686;8.684;2022-08-19T11:50:26;5.62;;;3.08;;
29422;SDS011;16399;51.686;8.684;2022-08-19T11:53:29;4.20;;;2.30;;
29422;SDS011;16399;51.686;8.684;2022-08-19T11:56:31;4.17;;;2.20;;
29422;SDS011;16399;51.686;8.684;2022-08-19T11:59:34;4.30;;;1.92;;
29422;SDS011;16399;51.686;8.684;2022-08-19T12:02:36;5.35;;;2.08;;
29422;SDS011;16399;51.686;8.684;2022-08-19T12:05:39;5.15;;;2.15;;
29422;SDS011;16399;51.686;8.684;2022-08-19T12:08:42;3.70;;;2.27;;
29422;SDS011;16399;51.686;8.684;2022-08-19T12:11:45;3.52;;;1.95;;
29422;SDS011;16399;51.686;8.684;2022-08-19T12:14:47;4.05;;;2.30;;
29422;SDS011;16399;51.686;8.684;2022-08-19T12:17:51;3.93;;;2.13;;
29422;SDS011;16399;51.686;8.684;2022-08-19T12:20:55;3.22;;;1.98;;
29422;SDS011;16399;51.686;8.684;2022-08-19T12:23:57;2.77;;;1.90;;
29422;SDS011;16399;51.686;8.684;2022-08-19T12:27:01;3.95;;;1.98;;
29422;SDS011;16399;51.686;8.684;2022-08-19T12:30:03;5.60;;;2.35;;
29422;SDS011;16399;51.686;8.684;2022-08-19T12:33:07;3.05;;;1.92;;
29422;SDS011;16399;51.686;8.684;2022-08-19T12:36:11;3.72;;;2.17;;
29422;SDS011;16399;51.686;8.684;2022-08-19T12:39:14;5.72;;;2.30;;
29422;SDS011;16399;51.686;8.684;2022-08-19T12:42:17;4.70;;;2.58;;
29422;SDS011;16399;51.686;8.684;2022-08-19T12:45:19;5.10;;;2.55;;
29422;SDS011;16399;51.686;8.684;2022-08-19T12:48:22;4.35;;;2.45;;
29422;SDS011;16399;51.686;8.684;2022-08-19T12:51:25;5.58;;;2.90;;
29422;SDS011;16399;51.686;8.684;2022-08-19T12:54:27;6.53;;;2.52;;
29422;SDS011;16399;51.686;8.684;2022-08-19T12:57:31;4.73;;;2.63;;
29422;SDS011;16399;51.686;8.684;2022-08-19T13:00:36;6.42;;;2.65;;
29422;SDS011;16399;51.686;8.684;2022-08-19T13:03:38;6.40;;;2.42;;
29422;SDS011;16399;51.686;8.684;2022-08-19T13:06:41;5.08;;;2.47;;
29422;SDS011;16399;51.686;8.684;2022-08-19T13:09:44;4.60;;;2.50;;
29422;SDS011;16399;51.686;8.684;2022-08-19T13:12:47;5.08;;;2.37;;
29422;SDS011;16399;51.686;8.684;2022-08-19T13:15:51;4.15;;;2.20;;
29422;SDS011;16399;51.686;8.684;2022-08-19T13:18:53;4.35;;;1.82;;
29422;SDS011;16399;51.686;8.684;2022-08-19T13:21:57;3.67;;;2.40;;
29422;SDS011;16399;51.686;8.684;2022-08-19T13:24:59;3.90;;;2.33;;
29422;SDS011;16399;51.686;8.684;2022-08-19T13:28:02;3.90;;;2.02;;
29422;SDS011;16399;51.686;8.684;2022-08-19T13:31:06;5.53;;;2.27;;
29422;SDS011;16399;51.686;8.684;2022-08-19T13:34:28;4.35;;;2.33;;
29422;SDS011;16399;51.686;8.684;2022-08-19T13:37:35;5.25;;;2.80;;
29422;SDS011;16399;51.686;8.684;2022-08-19T13:40:43;4.80;;;2.25;;
29422;SDS011;16399;51.686;8.684;2022-08-19T13:43:47;4.10;;;2.20;;
29422;SDS011;16399;51.686;8.684;2022-08-19T13:46:49;6.15;;;2.72;;
29422;SDS011;16399;51.686;8.684;2022-08-19T13:49:52;4.03;;;2.25;;
29422;SDS011;16399;51.686;8.684;2022-08-19T13:52:55;5.22;;;2.62;;
29422;SDS011;16399;51.686;8.684;2022-08-19T13:55:58;4.87;;;2.10;;
29422;SDS011;16399;51.686;8.684;2022-08-19T13:59:00;3.87;;;2.35;;
29422;SDS011;16399;51.686;8.684;2022-08-19T14:02:03;3.65;;;2.15;;
29422;SDS011;16399;51.686;8.684;2022-08-19T14:05:06;3.87;;;2.47;;
29422;SDS011;16399;51.686;8.684;2022-08-19T14:08:10;3.80;;;2.10;;
29422;SDS011;16399;51.686;8.684;2022-08-19T14:11:14;3.80;;;2.42;;
29422;SDS011;16399;51.686;8.684;2022-08-19T14:14:17;4.22;;;2.35;;
29422;SDS011;16399;51.686;8.684;2022-08-19T14:17:19;4.75;;;2.60;;
29422;SDS011;16399;51.686;8.684;2022-08-19T14:20:22;4.87;;;2.70;;
29422;SDS011;16399;51.686;8.684;2022-08-19T14:23:25;4.87;;;2.70;;
29422;SDS011;16399;51.686;8.684;2022-08-19T14:26:27;5.00;;;2.58;;
29422;SDS011;16399;51.686;8.684;2022-08-19T14:29:29;10.03;;;2.80;;
29422;SDS011;16399;51.686;8.684;2022-08-19T14:32:32;3.72;;;2.40;;
29422;SDS011;16399;51.686;8.684;2022-08-19T14:35:35;4.37;;;2.73;;
29422;SDS011;16399;51.686;8.684;2022-08-19T14:38:38;3.20;;;2.15;;
29422;SDS011;16399;51.686;8.684;2022-08-19T14:41:41;4.20;;;2.40;;
29422;SDS011;16399;51.686;8.684;2022-08-19T14:44:43;3.87;;;2.10;;
29422;SDS011;16399;51.686;8.684;2022-08-19T14:47:45;3.70;;;2.33;;
29422;SDS011;16399;51.686;8.684;2022-08-19T14:50:48;4.60;;;2.30;;
29422;SDS011;16399;51.686;8.684;2022-08-19T14:53:50;5.95;;;2.30;;
29422;SDS011;16399;51.686;8.684;2022-08-19T14:56:53;4.17;;;2.10;;
29422;SDS011;16399;51.686;8.684;2022-08-19T14:59:55;3.25;;;2.17;;
29422;SDS011;16399;51.686;8.684;2022-08-19T15:02:57;4.70;;;2.37;;
29422;SDS011;16399;51.686;8.684;2022-08-19T15:06:03;3.50;;;2.15;;
29422;SDS011;16399;51.686;8.684;2022-08-19T15:09:06;4.20;;;2.30;;
29422;SDS011;16399;51.686;8.684;2022-08-19T15:12:09;5.55;;;2.90;;
29422;SDS011;16399;51.686;8.684;2022-08-19T15:15:12;4.30;;;2.83;;
29422;SDS011;16399;51.686;8.684;2022-08-19T15:18:17;4.55;;;2.22;;
29422;SDS011;16399;51.686;8.684;2022-08-19T15:21:21;6.83;;;2.60;;
29422;SDS011;16399;51.686;8.684;2022-08-19T15:24:24;3.65;;;2.20;;
29422;SDS011;16399;51.686;8.684;2022-08-19T15:27:27;6.03;;;2.10;;
29422;SDS011;16399;51.686;8.684;2022-08-19T15:30:29;3.92;;;2.42;;
29422;SDS011;16399;51.686;8.684;2022-08-19T15:33:34;3.45;;;2.17;;
29422;SDS011;16399;51.686;8.684;2022-08-19T15:36:37;5.95;;;2.47;;
29422;SDS011;16399;51.686;8.684;2022-08-19T15:39:39;4.92;;;2.60;;
29422;SDS011;16399;51.686;8.684;2022-08-19T15:42:42;3.50;;;2.10;;
29422;SDS011;16399;51.686;8.684;2022-08-19T15:45:46;3.35;;;2.08;;
29422;SDS011;16399;51.686;8.684;2022-08-19T15:48:49;4.35;;;2.60;;
29422;SDS011;16399;51.686;8.684;2022-08-19T15:54:56;3.02;;;2.10;;
29422;SDS011;16399;51.686;8.684;2022-08-19T15:58:03;5.37;;;2.60;;
29422;SDS011;16399;51.686;8.684;2022-08-19T16:01:25;6.03;;;2.65;;
29422;SDS011;16399;51.686;8.684;2022-08-19T16:04:32;3.60;;;2.50;;
29422;SDS011;16399;51.686;8.684;2022-08-19T16:07:53;3.65;;;2.27;;
29422;SDS011;16399;51.686;8.684;2022-08-19T16:10:56;3.90;;;2.20;;
29422;SDS011;16399;51.686;8.684;2022-08-19T16:13:59;4.70;;;2.42;;
29422;SDS011;16399;51.686;8.684;2022-08-19T16:20:06;3.87;;;2.40;;
29422;SDS011;16399;51.686;8.684;2022-08-19T16:23:10;3.58;;;2.20;;
29422;SDS011;16399;51.686;8.684;2022-08-19T16:26:14;3.77;;;2.50;;
29422;SDS011;16399;51.686;8.684;2022-08-19T16:29:19;7.22;;;2.72;;
29422;SDS011;16399;51.686;8.684;2022-08-19T16:32:25;5.05;;;2.15;;
29422;SDS011;16399;51.686;8.684;2022-08-19T16:35:27;3.75;;;2.22;;
29422;SDS011;16399;51.686;8.684;2022-08-19T16:38:29;6.22;;;2.67;;
29422;SDS011;16399;51.686;8.684;2022-08-19T16:41:32;6.05;;;3.00;;
29422;SDS011;16399;51.686;8.684;2022-08-19T16:44:39;5.92;;;3.05;;
29422;SDS011;16399;51.686;8.684;2022-08-19T16:47:41;4.25;;;2.95;;
29422;SDS011;16399;51.686;8.684;2022-08-19T16:50:44;4.70;;;2.72;;
29422;SDS011;16399;51.686;8.684;2022-08-19T16:53:46;4.10;;;2.70;;
29422;SDS011;16399;51.686;8.684;2022-08-19T16:59:53;4.92;;;2.77;;
29422;SDS011;16399;51.686;8.684;2022-08-19T17:02:55;6.78;;;2.70;;
29422;SDS011;16399;51.686;8.684;2022-08-19T17:05:58;3.75;;;2.52;;
29422;SDS011;16399;51.686;8.684;2022-08-19T17:09:04;5.20;;;3.00;;
29422;SDS011;16399;51.686;8.684;2022-08-19T17:12:07;4.78;;;2.70;;
29422;SDS011;16399;51.686;8.684;2022-08-19T17:15:10;4.33;;;2.85;;
29422;SDS011;16399;51.686;8.684;2022-08-19T17:18:13;4.97;;;2.70;;
29422;SDS011;16399;51.686;8.684;2022-08-19T17:21:15;4.35;;;2.55;;
29422;SDS011;16399;51.686;8.684;2022-08-19T17:24:18;3.37;;;2.30;;
29422;SDS011;16399;51.686;8.684;2022-08-19T17:27:20;4.72;;;3.00;;
29422;SDS011;16399;51.686;8.684;2022-08-19T17:30:23;4.22;;;2.98;;
29422;SDS011;16399;51.686;8.684;2022-08-19T17:33:25;4.42;;;2.90;;
29422;SDS011;16399;51.686;8.684;2022-08-19T17:36:29;4.55;;;3.10;;
29422;SDS011;16399;51.686;8.684;2022-08-19T17:39:33;5.42;;;3.02;;
29422;SDS011;16399;51.686;8.684;2022-08-19T17:42:37;5.87;;;3.30;;
29422;SDS011;16399;51.686;8.684;2022-08-19T17:45:41;4.95;;;3.27;;
29422;SDS011;16399;51.686;8.684;2022-08-19T17:48:44;6.30;;;3.25;;
29422;SDS011;16399;51.686;8.684;2022-08-19T17:51:49;4.33;;;3.00;;
29422;SDS011;16399;51.686;8.684;2022-08-19T17:54:51;7.20;;;3.52;;
29422;SDS011;16399;51.686;8.684;2022-08-19T17:57:55;6.92;;;3.02;;
29422;SDS011;16399;51.686;8.684;2022-08-19T18:00:58;6.03;;;3.40;;
29422;SDS011;16399;51.686;8.684;2022-08-19T18:04:02;7.58;;;3.27;;
29422;SDS011;16399;51.686;8.684;2022-08-19T18:07:07;5.08;;;3.58;;
29422;SDS011;16399;51.686;8.684;2022-08-19T18:10:09;6.37;;;3.35;;
29422;SDS011;16399;51.686;8.684;2022-08-19T18:13:13;6.05;;;3.58;;
29422;SDS011;16399;51.686;8.684;2022-08-19T18:16:15;6.05;;;3.87;;
29422;SDS011;16399;51.686;8.684;2022-08-19T18:19:24;6.12;;;4.00;;
29422;SDS011;16399;51.686;8.684;2022-08-19T18:22:29;7.03;;;4.15;;
29422;SDS011;16399;51.686;8.684;2022-08-19T18:25:36;9.90;;;4.15;;
29422;SDS011;16399;51.686;8.684;2022-08-19T18:28:38;6.60;;;4.37;;
29422;SDS011;16399;51.686;8.684;2022-08-19T18:31:41;9.60;;;4.00;;
29422;SDS011;16399;51.686;8.684;2022-08-19T18:34:43;6.17;;;4.17;;
29422;SDS011;16399;51.686;8.684;2022-08-19T18:37:46;7.60;;;3.92;;
29422;SDS011;16399;51.686;8.684;2022-08-19T18:40:48;7.22;;;4.10;;
29422;SDS011;16399;51.686;8.684;2022-08-19T18:44:09;6.42;;;4.08;;